createdAt,value
2023-03-29T00:03:18.701Z,2.30
2023-03-29T00:08:22.749Z,2.20
2023-03-29T00:13:25.377Z,2.10
2023-03-29T00:18:27.928Z,2.08
2023-03-29T00:23:32.283Z,1.97
2023-03-29T00:28:34.995Z,2.30
2023-03-29T00:33:37.581Z,2.20
2023-03-29T00:38:41.576Z,2.10
2023-03-29T00:43:55.375Z,2.00
2023-03-29T00:49:02.320Z,1.90
2023-03-29T00:54:09.243Z,1.90
2023-03-29T00:59:16.141Z,2.03
2023-03-29T01:04:24.639Z,1.90
2023-03-29T01:09:32.308Z,2.35
2023-03-29T01:14:39.345Z,2.27
2023-03-29T01:19:47.000Z,2.33
2023-03-29T01:25:00.979Z,2.17
2023-03-29T01:30:12.609Z,1.95
2023-03-29T01:35:21.021Z,2.20
2023-03-29T01:40:24.035Z,2.20
2023-03-29T01:45:35.613Z,2.03
2023-03-29T01:50:43.104Z,2.20
2023-03-29T01:55:51.222Z,2.28
2023-03-29T02:00:56.107Z,2.20
2023-03-29T02:06:00.262Z,2.30
2023-03-29T02:11:03.006Z,2.33
2023-03-29T02:16:12.465Z,2.40
2023-03-29T02:21:21.806Z,2.35
2023-03-29T02:26:24.621Z,2.13
2023-03-29T02:31:33.184Z,2.15
2023-03-29T02:36:41.635Z,2.00
2023-03-29T02:41:47.346Z,2.03
2023-03-29T02:46:57.328Z,1.90
2023-03-29T02:52:07.322Z,2.38
2023-03-29T02:57:11.191Z,2.50
2023-03-29T03:02:17.433Z,2.60
2023-03-29T03:07:20.264Z,2.38
2023-03-29T03:12:22.832Z,2.80
2023-03-29T03:17:26.752Z,2.93
2023-03-29T03:22:29.252Z,2.40
2023-03-29T03:27:33.904Z,2.50
2023-03-29T03:32:37.869Z,2.70
2023-03-29T03:37:40.972Z,2.45
2023-03-29T03:42:43.941Z,3.00
2023-03-29T03:47:47.978Z,2.87
2023-03-29T03:52:50.628Z,2.90
2023-03-29T03:57:53.259Z,2.53
2023-03-29T04:02:57.270Z,2.65
2023-03-29T04:08:00.109Z,2.10
2023-03-29T04:13:03.045Z,2.60
2023-03-29T04:18:07.406Z,2.50
2023-03-29T04:23:10.208Z,2.50
2023-03-29T04:28:13.590Z,2.38
2023-03-29T04:33:17.501Z,2.50
2023-03-29T04:38:23.116Z,2.50
2023-03-29T04:43:25.737Z,2.13
2023-03-29T04:48:31.534Z,2.50
2023-03-29T04:53:34.109Z,2.60
2023-03-29T04:58:36.719Z,2.67
2023-03-29T05:03:40.565Z,2.90
2023-03-29T05:08:43.303Z,2.60
2023-03-29T05:13:45.965Z,2.47
2023-03-29T05:18:49.940Z,2.60
2023-03-29T05:23:53.237Z,2.58
2023-03-29T05:28:55.834Z,2.73
2023-03-29T05:33:59.662Z,2.60
2023-03-29T05:39:02.162Z,2.63
2023-03-29T05:44:04.749Z,2.47
2023-03-29T05:49:08.605Z,2.77
2023-03-29T05:54:11.510Z,2.58
2023-03-29T05:59:14.842Z,3.00
2023-03-29T06:04:18.915Z,3.10
2023-03-29T06:09:21.519Z,2.95
2023-03-29T06:14:24.857Z,2.67
2023-03-29T06:19:29.197Z,3.00
2023-03-29T06:24:32.210Z,3.00
2023-03-29T06:29:35.105Z,2.95
2023-03-29T06:34:39.486Z,3.20
2023-03-29T06:39:42.018Z,3.10
2023-03-29T06:44:44.590Z,3.17
2023-03-29T06:49:48.403Z,3.20
2023-03-29T06:54:51.667Z,2.97
2023-03-29T06:59:54.214Z,3.25
2023-03-29T07:04:58.040Z,3.10
2023-03-29T07:10:01.729Z,3.60
2023-03-29T07:15:04.733Z,3.70
2023-03-29T07:20:13.833Z,3.80
2023-03-29T07:25:17.150Z,3.70
2023-03-29T07:30:22.747Z,3.50
2023-03-29T07:35:27.498Z,3.50
2023-03-29T07:40:31.150Z,3.40
2023-03-29T07:45:33.910Z,3.80
2023-03-29T07:50:37.864Z,3.28
2023-03-29T07:55:47.231Z,3.72
2023-03-29T08:00:50.639Z,3.87
2023-03-29T08:05:54.841Z,3.67
2023-03-29T08:10:57.423Z,4.13
2023-03-29T08:16:00.199Z,3.65
2023-03-29T08:21:04.760Z,4.00
2023-03-29T08:26:08.592Z,4.38
2023-03-29T08:31:12.741Z,3.80
2023-03-29T08:36:16.705Z,4.43
2023-03-29T08:41:32.866Z,4.25
2023-03-29T08:46:42.157Z,4.80
2023-03-29T08:51:49.056Z,4.70
2023-03-29T08:56:53.157Z,4.43
2023-03-29T09:01:59.213Z,4.63
2023-03-29T09:07:04.919Z,4.95
2023-03-29T09:12:20.789Z,4.00
2023-03-29T09:17:35.707Z,4.70
2023-03-29T09:22:47.016Z,4.68
2023-03-29T09:27:54.899Z,4.67
2023-03-29T09:33:01.769Z,4.65
2023-03-29T09:38:10.358Z,4.93
2023-03-29T09:43:17.620Z,4.80
2023-03-29T09:48:21.598Z,5.03
2023-03-29T09:53:26.412Z,5.40
2023-03-29T09:58:31.570Z,5.03
2023-03-29T10:03:34.924Z,4.90
2023-03-29T10:08:41.696Z,4.55
2023-03-29T10:13:47.224Z,4.90
2023-03-29T10:18:51.093Z,5.20
2023-03-29T10:23:59.610Z,5.93
2023-03-29T10:29:06.106Z,5.20
2023-03-29T10:34:09.558Z,6.23
2023-03-29T10:39:16.250Z,5.67
2023-03-29T10:44:31.572Z,5.80
2023-03-29T10:49:42.009Z,5.75
2023-03-29T10:54:47.261Z,6.20
2023-03-29T10:59:58.864Z,5.15
2023-03-29T11:05:15.695Z,4.30
2023-03-29T11:10:42.590Z,5.17
2023-03-29T11:15:59.128Z,4.50
2023-03-29T11:21:10.722Z,4.13
2023-03-29T11:26:22.730Z,4.40
2023-03-29T11:31:37.206Z,4.57
2023-03-29T11:36:53.698Z,4.80
2023-03-29T11:42:06.726Z,4.85
2023-03-29T11:47:14.400Z,4.40
2023-03-29T11:52:20.763Z,4.22
2023-03-29T11:57:29.957Z,4.38
2023-03-29T12:02:37.338Z,4.07
2023-03-29T12:07:46.749Z,3.80
2023-03-29T12:12:58.451Z,4.10
2023-03-29T12:18:08.246Z,4.20
2023-03-29T12:23:15.743Z,3.83
2023-03-29T12:28:36.692Z,4.25
2023-03-29T12:34:07.599Z,3.65
2023-03-29T12:39:15.292Z,3.60
2023-03-29T12:44:23.414Z,3.80
2023-03-29T12:49:30.417Z,3.75
2023-03-29T12:54:34.255Z,3.77
2023-03-29T12:59:45.180Z,3.78
2023-03-29T13:04:52.130Z,4.05
2023-03-29T13:09:56.545Z,3.53
2023-03-29T13:15:02.670Z,4.27
2023-03-29T13:20:21.160Z,12.70
2023-03-29T13:25:50.493Z,24.45
2023-03-29T13:31:00.418Z,10.87
2023-03-29T13:36:08.721Z,4.50
2023-03-29T13:41:28.698Z,4.60
2023-03-29T13:46:41.310Z,5.20
2023-03-29T13:52:01.530Z,4.20
2023-03-29T13:57:10.843Z,4.00
2023-03-29T14:02:22.840Z,3.90
2023-03-29T14:07:27.009Z,3.73
2023-03-29T14:12:35.391Z,3.97
2023-03-29T14:17:40.054Z,4.43
2023-03-29T14:22:43.894Z,4.10
2023-03-29T14:27:46.678Z,4.75
2023-03-29T14:32:52.332Z,9.05
2023-03-29T14:37:55.042Z,4.63
2023-03-29T14:42:57.604Z,15.80
2023-03-29T14:48:01.785Z,34.53
2023-03-29T14:53:06.110Z,10.40
2023-03-29T14:58:20.473Z,19.73
2023-03-29T15:03:26.420Z,35.88
2023-03-29T15:08:33.554Z,24.95
2023-03-29T15:13:36.385Z,19.23
2023-03-29T15:18:42.862Z,13.43
2023-03-29T15:23:51.604Z,24.48
2023-03-29T15:28:57.382Z,12.20
2023-03-29T15:34:08.503Z,37.55
2023-03-29T15:39:14.374Z,42.55
2023-03-29T15:44:18.684Z,64.87
2023-03-29T15:49:22.574Z,80.07
2023-03-29T15:54:25.304Z,10.75
2023-03-29T15:59:28.210Z,74.05
2023-03-29T16:04:32.115Z,29.63
2023-03-29T16:09:34.812Z,9.57
2023-03-29T16:14:37.578Z,49.40
2023-03-29T16:19:41.395Z,149.00
2023-03-29T16:24:43.932Z,43.80
2023-03-29T16:29:46.456Z,104.18
2023-03-29T16:34:50.294Z,128.40
2023-03-29T16:39:52.813Z,32.70
2023-03-29T16:44:56.508Z,80.65
2023-03-29T16:50:00.399Z,55.92
2023-03-29T16:55:04.037Z,17.70
2023-03-29T17:00:10.787Z,66.15
2023-03-29T17:05:14.730Z,127.15
2023-03-29T17:10:17.268Z,104.80
2023-03-29T17:15:19.882Z,18.92
2023-03-29T17:20:23.732Z,15.07
2023-03-29T17:25:26.309Z,10.77
2023-03-29T17:30:30.407Z,25.43
2023-03-29T17:35:34.816Z,55.88
2023-03-29T17:40:37.495Z,15.43
2023-03-29T17:45:40.117Z,38.57
2023-03-29T17:50:43.973Z,12.32
2023-03-29T17:55:46.748Z,11.50
2023-03-29T18:00:49.566Z,9.80
2023-03-29T18:05:54.181Z,9.32
2023-03-29T18:10:56.722Z,8.80
2023-03-29T18:15:59.734Z,8.33
2023-03-29T18:21:04.105Z,10.13
2023-03-29T18:26:08.234Z,12.27
2023-03-29T18:31:10.995Z,11.10
2023-03-29T18:36:15.422Z,10.90
2023-03-29T18:41:18.020Z,8.90
2023-03-29T18:46:20.534Z,8.20
2023-03-29T18:51:25.726Z,8.40
2023-03-29T18:56:28.632Z,8.23
2023-03-29T19:01:31.183Z,7.22
2023-03-29T19:06:35.825Z,7.63
2023-03-29T19:11:38.369Z,6.90
2023-03-29T19:16:42.293Z,7.60
2023-03-29T19:21:47.899Z,7.80
2023-03-29T19:26:51.905Z,7.67
2023-03-29T19:31:54.558Z,7.35
2023-03-29T19:37:00.200Z,7.20
2023-03-29T19:42:02.757Z,8.47
2023-03-29T19:47:05.663Z,7.55
2023-03-29T19:52:10.528Z,7.50
2023-03-29T19:57:13.050Z,7.83
2023-03-29T20:02:16.009Z,8.90
2023-03-29T20:07:19.961Z,18.55
2023-03-29T20:12:22.756Z,8.18
2023-03-29T20:17:25.581Z,8.30
2023-03-29T20:22:31.145Z,9.52
2023-03-29T20:27:34.073Z,8.45
2023-03-29T20:32:36.693Z,7.80
2023-03-29T20:37:40.692Z,7.43
2023-03-29T20:42:46.137Z,14.63
2023-03-29T20:47:57.403Z,6.90
2023-03-29T20:53:03.586Z,7.30
2023-03-29T20:58:07.768Z,6.70
2023-03-29T21:03:10.820Z,7.30
2023-03-29T21:08:18.224Z,6.97
2023-03-29T21:13:20.865Z,13.30
2023-03-29T21:18:23.535Z,14.73
2023-03-29T21:23:27.382Z,7.40
2023-03-29T21:28:29.917Z,7.38
2023-03-29T21:33:32.509Z,9.40
2023-03-29T21:38:36.570Z,6.70
2023-03-29T21:43:39.588Z,17.43
2023-03-29T21:48:42.593Z,11.65
2023-03-29T21:53:46.469Z,13.88
2023-03-29T21:58:48.947Z,7.63
2023-03-29T22:03:51.470Z,6.85
2023-03-29T22:08:55.277Z,8.07
2023-03-29T22:13:57.868Z,7.27
2023-03-29T22:19:00.393Z,7.95
2023-03-29T22:24:04.953Z,10.07
2023-03-29T22:29:07.490Z,8.77
2023-03-29T22:34:10.006Z,8.67
2023-03-29T22:39:13.864Z,7.90
2023-03-29T22:44:16.369Z,8.05
2023-03-29T22:49:18.913Z,7.90
2023-03-29T22:54:22.728Z,10.45
2023-03-29T22:59:26.854Z,8.07
2023-03-29T23:04:29.473Z,7.80
2023-03-29T23:09:33.499Z,9.32
2023-03-29T23:14:36.077Z,8.40
2023-03-29T23:19:38.791Z,8.17
2023-03-29T23:24:43.449Z,8.17
2023-03-29T23:29:46.056Z,8.02
2023-03-29T23:34:48.563Z,10.65
2023-03-29T23:39:52.380Z,10.50
2023-03-29T23:44:55.807Z,9.57
2023-03-29T23:50:01.942Z,8.80
2023-03-29T23:55:06.700Z,9.43
